createdAt,value
2023-02-27T00:02:26.567Z,6.45
2023-02-27T00:05:00.894Z,5.60
2023-02-27T00:07:34.554Z,6.10
2023-02-27T00:10:09.788Z,6.22
2023-02-27T00:12:53.013Z,7.25
2023-02-27T00:20:38.250Z,5.05
2023-02-27T00:23:11.743Z,5.30
2023-02-27T00:28:18.365Z,6.80
2023-02-27T00:30:51.832Z,7.18
2023-02-27T00:33:26.818Z,6.00
2023-02-27T00:36:02.701Z,6.40
2023-02-27T00:38:36.544Z,6.30
2023-02-27T00:41:09.769Z,6.40
2023-02-27T00:43:44.020Z,7.30
2023-02-27T00:46:17.246Z,6.90
2023-02-27T00:48:52.152Z,6.75
2023-02-27T00:51:25.873Z,5.78
2023-02-27T00:53:59.138Z,7.40
2023-02-27T00:56:32.932Z,6.90
2023-02-27T00:59:06.281Z,6.38
2023-02-27T01:01:40.101Z,7.82
2023-02-27T01:06:48.788Z,7.60
2023-02-27T01:09:22.404Z,8.18
2023-02-27T01:12:00.508Z,7.57
2023-02-27T01:17:07.832Z,5.97
2023-02-27T01:19:42.875Z,6.63
2023-02-27T01:22:17.428Z,7.18
2023-02-27T01:24:50.639Z,5.72
2023-02-27T01:27:23.998Z,8.38
2023-02-27T01:29:57.393Z,6.22
2023-02-27T01:32:30.745Z,7.22
2023-02-27T01:35:06.445Z,7.03
2023-02-27T01:37:40.304Z,6.63
2023-02-27T01:40:14.861Z,6.85
2023-02-27T01:42:48.157Z,8.40
2023-02-27T01:45:30.877Z,7.95
2023-02-27T01:48:11.951Z,7.07
2023-02-27T01:50:51.897Z,7.10
2023-02-27T01:53:27.207Z,6.97
2023-02-27T01:56:06.293Z,7.40
2023-02-27T01:58:40.759Z,8.43
2023-02-27T02:01:14.044Z,6.63
2023-02-27T02:06:25.140Z,6.55
2023-02-27T02:09:00.987Z,8.48
2023-02-27T02:11:34.767Z,8.40
2023-02-27T02:14:11.017Z,7.65
2023-02-27T02:16:56.253Z,6.95
2023-02-27T02:19:54.489Z,8.25
2023-02-27T02:23:06.951Z,7.78
2023-02-27T02:26:11.981Z,7.43
2023-02-27T02:29:12.947Z,7.38
2023-02-27T02:32:27.597Z,10.27
2023-02-27T02:35:45.806Z,6.38
2023-02-27T02:39:06.367Z,7.97
2023-02-27T02:41:54.557Z,7.82
2023-02-27T02:44:41.238Z,7.88
2023-02-27T02:47:23.704Z,8.48
2023-02-27T02:50:02.059Z,8.73
2023-02-27T02:52:45.299Z,8.40
2023-02-27T02:55:25.957Z,8.65
2023-02-27T02:58:05.567Z,10.00
2023-02-27T03:00:45.005Z,7.75
2023-02-27T03:03:26.345Z,8.02
2023-02-27T03:06:04.971Z,8.63
2023-02-27T03:08:44.904Z,9.30
2023-02-27T03:11:21.681Z,9.10
2023-02-27T03:14:00.112Z,9.05
2023-02-27T03:16:41.175Z,9.25
2023-02-27T03:19:19.357Z,9.02
2023-02-27T03:21:56.753Z,10.25
2023-02-27T03:24:34.893Z,9.63
2023-02-27T03:27:11.043Z,9.10
2023-02-27T03:29:50.806Z,8.70
2023-02-27T03:32:30.268Z,10.30
2023-02-27T03:35:05.127Z,10.38
2023-02-27T03:37:52.564Z,10.73
2023-02-27T03:40:30.485Z,9.68
2023-02-27T03:43:17.965Z,10.55
2023-02-27T03:45:58.090Z,10.50
2023-02-27T03:48:32.282Z,8.80
2023-02-27T03:51:06.578Z,7.47
2023-02-27T03:53:46.080Z,11.00
2023-02-27T03:56:25.264Z,10.63
2023-02-27T03:59:00.205Z,10.85
2023-02-27T04:01:33.761Z,11.45
2023-02-27T04:04:11.343Z,9.73
2023-02-27T04:07:07.677Z,9.45
2023-02-27T04:09:57.820Z,9.75
2023-02-27T04:12:57.864Z,10.00
2023-02-27T04:15:45.628Z,9.52
2023-02-27T04:18:31.562Z,11.80
2023-02-27T04:21:11.205Z,10.52
2023-02-27T04:23:55.888Z,9.73
2023-02-27T04:26:33.533Z,9.93
2023-02-27T04:29:12.826Z,9.80
2023-02-27T04:31:54.328Z,10.23
2023-02-27T04:34:34.481Z,12.77
2023-02-27T04:37:11.705Z,10.35
2023-02-27T04:39:51.955Z,9.05
2023-02-27T04:42:30.294Z,9.63
2023-02-27T04:45:07.342Z,10.68
2023-02-27T04:47:47.761Z,8.73
2023-02-27T04:50:36.372Z,10.38
2023-02-27T04:53:15.565Z,8.88
2023-02-27T04:55:51.980Z,10.93
2023-02-27T04:58:29.292Z,9.50
2023-02-27T05:01:06.437Z,11.57
2023-02-27T05:03:44.677Z,9.57
2023-02-27T05:06:23.106Z,9.85
2023-02-27T05:09:04.741Z,9.27
2023-02-27T05:11:45.486Z,10.07
2023-02-27T05:14:26.288Z,9.02
2023-02-27T05:17:08.098Z,9.25
2023-02-27T05:19:44.816Z,10.40
2023-02-27T05:22:29.442Z,10.52
2023-02-27T05:25:09.204Z,10.57
2023-02-27T05:27:47.326Z,11.25
2023-02-27T05:30:26.377Z,11.00
2023-02-27T05:33:07.026Z,10.75
2023-02-27T05:35:48.380Z,9.43
2023-02-27T05:38:26.851Z,8.95
2023-02-27T05:41:05.994Z,8.07
2023-02-27T05:43:43.977Z,8.38
2023-02-27T05:46:21.059Z,7.20
2023-02-27T05:48:58.239Z,8.57
2023-02-27T05:51:36.910Z,8.02
2023-02-27T05:54:17.681Z,7.43
2023-02-27T05:56:54.593Z,8.70
2023-02-27T05:59:33.739Z,9.18
2023-02-27T06:02:08.118Z,9.63
2023-02-27T06:07:16.806Z,6.87
2023-02-27T06:09:51.207Z,9.10
2023-02-27T06:12:25.840Z,10.25
2023-02-27T06:17:33.437Z,4.30
2023-02-27T06:20:08.295Z,4.47
2023-02-27T06:22:43.371Z,3.45
2023-02-27T06:25:16.800Z,5.13
2023-02-27T06:27:50.340Z,11.75
2023-02-27T06:30:24.032Z,6.85
2023-02-27T06:32:57.827Z,6.97
2023-02-27T06:35:31.258Z,5.43
2023-02-27T06:38:06.088Z,3.28
2023-02-27T06:40:39.269Z,2.40
2023-02-27T06:43:12.492Z,3.25
2023-02-27T06:45:45.882Z,4.15
2023-02-27T06:48:19.429Z,2.53
2023-02-27T06:50:53.772Z,2.72
2023-02-27T06:53:28.410Z,3.42
2023-02-27T06:56:01.660Z,4.55
2023-02-27T06:58:35.340Z,4.30
2023-02-27T07:01:08.988Z,3.03
2023-02-27T07:06:15.898Z,2.70
2023-02-27T07:09:02.244Z,2.55
2023-02-27T07:11:40.469Z,2.35
2023-02-27T07:14:16.670Z,2.20
2023-02-27T07:16:55.045Z,3.65
2023-02-27T07:19:28.361Z,2.40
2023-02-27T07:22:01.643Z,2.40
2023-02-27T07:24:36.624Z,2.35
2023-02-27T07:27:10.062Z,2.58
2023-02-27T07:29:43.516Z,3.35
2023-02-27T07:32:16.845Z,3.53
2023-02-27T07:34:50.305Z,4.50
2023-02-27T07:37:23.555Z,3.17
2023-02-27T07:39:58.295Z,3.13
2023-02-27T07:42:32.383Z,6.47
2023-02-27T07:45:06.729Z,6.72
2023-02-27T07:47:40.297Z,4.53
2023-02-27T07:50:15.021Z,3.75
2023-02-27T07:52:48.216Z,3.97
2023-02-27T07:55:23.112Z,3.13
2023-02-27T07:57:56.737Z,4.00
2023-02-27T08:00:30.448Z,4.00
2023-02-27T08:03:03.735Z,2.83
2023-02-27T08:05:37.583Z,2.22
2023-02-27T08:08:11.186Z,2.72
2023-02-27T08:10:45.985Z,2.70
2023-02-27T08:13:30.120Z,2.53
2023-02-27T08:16:10.754Z,4.15
2023-02-27T08:18:44.397Z,4.43
2023-02-27T08:21:17.753Z,3.85
2023-02-27T08:23:51.141Z,3.75
2023-02-27T08:29:00.272Z,5.63
2023-02-27T08:31:33.638Z,5.47
2023-02-27T08:34:10.585Z,5.40
2023-02-27T08:36:44.451Z,6.63
2023-02-27T08:41:53.931Z,12.25
2023-02-27T08:44:27.358Z,7.57
2023-02-27T08:47:00.624Z,8.52
2023-02-27T08:49:33.960Z,10.68
2023-02-27T08:52:09.433Z,10.07
2023-02-27T08:54:43.075Z,11.93
2023-02-27T08:57:18.093Z,11.27
2023-02-27T08:59:51.316Z,10.63
2023-02-27T09:02:26.396Z,8.88
2023-02-27T09:05:00.198Z,10.32
2023-02-27T09:10:09.106Z,9.45
2023-02-27T09:12:44.190Z,11.05
2023-02-27T09:15:18.171Z,8.90
2023-02-27T09:17:51.884Z,9.93
2023-02-27T09:20:25.621Z,9.40
2023-02-27T09:22:59.781Z,10.35
2023-02-27T09:25:33.632Z,9.60
2023-02-27T09:28:08.488Z,10.18
2023-02-27T09:30:41.727Z,10.02
2023-02-27T09:33:15.237Z,9.52
2023-02-27T09:35:48.647Z,9.15
2023-02-27T09:38:22.139Z,11.70
2023-02-27T09:40:59.527Z,10.30
2023-02-27T09:43:41.607Z,11.35
2023-02-27T09:46:19.955Z,8.88
2023-02-27T09:48:55.973Z,11.40
2023-02-27T09:51:31.097Z,10.68
2023-02-27T09:54:06.341Z,8.60
2023-02-27T09:56:47.063Z,11.30
2023-02-27T09:59:33.044Z,11.98
2023-02-27T10:02:22.199Z,12.00
2023-02-27T10:05:02.869Z,10.70
2023-02-27T10:07:42.816Z,10.55
2023-02-27T10:10:26.154Z,10.55
2023-02-27T10:13:17.981Z,10.98
2023-02-27T10:15:54.703Z,10.95
2023-02-27T10:18:32.344Z,10.85
2023-02-27T10:21:11.953Z,11.25
2023-02-27T10:23:56.509Z,13.02
2023-02-27T10:26:34.253Z,11.30
2023-02-27T10:29:19.051Z,12.02
2023-02-27T10:32:00.694Z,10.23
2023-02-27T10:34:35.751Z,8.80
2023-02-27T10:37:14.512Z,10.27
2023-02-27T10:39:51.064Z,9.32
2023-02-27T10:42:26.910Z,10.90
2023-02-27T10:45:01.256Z,8.30
2023-02-27T10:47:38.899Z,11.95
2023-02-27T10:50:24.403Z,10.02
2023-02-27T10:52:59.772Z,9.85
2023-02-27T10:55:35.951Z,10.35
2023-02-27T10:58:09.674Z,9.95
2023-02-27T11:00:55.299Z,9.85
2023-02-27T11:03:35.066Z,9.27
2023-02-27T11:06:13.419Z,8.23
2023-02-27T11:09:06.648Z,10.55
2023-02-27T11:11:41.264Z,8.15
2023-02-27T11:14:27.996Z,8.55
2023-02-27T11:17:03.800Z,9.93
2023-02-27T11:19:40.337Z,9.15
2023-02-27T11:22:18.646Z,7.38
2023-02-27T11:24:52.755Z,10.18
2023-02-27T11:27:28.972Z,10.05
2023-02-27T11:30:06.296Z,9.50
2023-02-27T11:32:44.433Z,9.02
2023-02-27T11:35:27.188Z,9.93
2023-02-27T11:38:02.558Z,10.32
2023-02-27T11:40:42.041Z,8.85
2023-02-27T11:43:20.081Z,8.60
2023-02-27T11:46:12.747Z,9.93
2023-02-27T11:48:52.258Z,9.40
2023-02-27T11:51:39.120Z,10.32
2023-02-27T11:54:22.923Z,8.23
2023-02-27T11:56:59.317Z,11.60
2023-02-27T11:59:43.309Z,9.88
2023-02-27T12:02:23.710Z,9.90
2023-02-27T12:05:00.836Z,9.55
2023-02-27T12:07:40.791Z,9.75
2023-02-27T12:10:19.734Z,12.07
2023-02-27T12:12:59.775Z,10.00
2023-02-27T12:15:44.161Z,9.93
2023-02-27T12:18:24.231Z,7.88
2023-02-27T12:21:02.569Z,9.25
2023-02-27T12:23:42.841Z,9.75
2023-02-27T12:26:25.215Z,10.15
2023-02-27T12:29:01.403Z,10.43
2023-02-27T12:31:46.190Z,8.50
2023-02-27T12:34:28.487Z,9.77
2023-02-27T12:37:04.849Z,7.78
2023-02-27T12:39:41.225Z,9.18
2023-02-27T12:42:46.576Z,9.77
2023-02-27T12:45:52.092Z,10.70
2023-02-27T12:48:55.670Z,8.35
2023-02-27T12:51:44.110Z,8.73
2023-02-27T12:54:27.860Z,10.13
2023-02-27T13:00:07.033Z,8.60
2023-02-27T13:02:51.491Z,9.20
2023-02-27T13:05:43.131Z,8.88
2023-02-27T13:08:38.215Z,8.75
2023-02-27T13:11:24.917Z,8.48
2023-02-27T13:14:03.061Z,9.63
2023-02-27T13:16:42.366Z,8.25
2023-02-27T13:19:20.887Z,9.40
2023-02-27T13:21:57.132Z,8.30
2023-02-27T13:24:32.400Z,9.40
2023-02-27T13:27:14.811Z,8.63
2023-02-27T13:30:02.314Z,9.10
2023-02-27T13:32:44.449Z,9.25
2023-02-27T13:35:25.144Z,8.88
2023-02-27T13:38:01.683Z,8.90
2023-02-27T13:40:38.697Z,9.27
2023-02-27T13:43:46.420Z,9.18
2023-02-27T13:46:27.643Z,9.80
2023-02-27T13:49:29.581Z,9.45
2023-02-27T13:52:04.132Z,9.48
2023-02-27T13:54:41.908Z,9.05
2023-02-27T13:57:27.125Z,9.52
2023-02-27T14:00:05.216Z,8.55
2023-02-27T14:02:59.462Z,9.00
2023-02-27T14:05:37.694Z,10.68
2023-02-27T14:08:17.309Z,8.88
2023-02-27T14:10:59.924Z,9.90
2023-02-27T14:14:00.719Z,7.68
2023-02-27T14:17:00.077Z,11.23
2023-02-27T14:19:59.618Z,8.98
2023-02-27T14:22:55.887Z,10.32
2023-02-27T14:25:34.507Z,10.73
2023-02-27T14:28:21.764Z,9.02
2023-02-27T14:30:59.564Z,9.02
2023-02-27T14:33:41.573Z,9.68
2023-02-27T14:36:21.413Z,9.35
2023-02-27T14:39:01.954Z,9.30
2023-02-27T14:41:45.017Z,8.40
2023-02-27T14:44:23.726Z,8.13
2023-02-27T14:46:58.528Z,7.80
2023-02-27T14:49:33.947Z,9.13
2023-02-27T14:52:20.786Z,9.20
2023-02-27T14:54:54.800Z,9.98
2023-02-27T14:57:28.225Z,11.43
2023-02-27T15:00:01.925Z,12.40
2023-02-27T15:02:38.246Z,11.20
2023-02-27T15:05:21.909Z,12.98
2023-02-27T15:07:56.844Z,11.35
2023-02-27T15:10:33.245Z,13.50
2023-02-27T15:13:08.234Z,13.82
2023-02-27T15:15:42.232Z,14.43
2023-02-27T15:18:16.404Z,14.57
2023-02-27T15:23:31.661Z,12.40
2023-02-27T15:26:05.721Z,12.07
2023-02-27T15:28:40.218Z,11.30
2023-02-27T15:31:20.770Z,18.95
2023-02-27T15:33:54.612Z,13.05
2023-02-27T15:36:30.889Z,13.13
2023-02-27T15:39:17.157Z,13.43
2023-02-27T15:41:53.602Z,15.77
2023-02-27T15:44:30.029Z,16.85
2023-02-27T15:47:03.674Z,9.68
2023-02-27T15:49:38.392Z,15.60
2023-02-27T15:52:17.846Z,12.18
2023-02-27T15:54:55.495Z,10.43
2023-02-27T15:57:30.674Z,11.68
2023-02-27T16:00:06.996Z,10.70
2023-02-27T16:02:44.384Z,9.68
2023-02-27T16:05:20.425Z,11.20
2023-02-27T16:07:55.022Z,13.18
2023-02-27T16:10:35.540Z,13.88
2023-02-27T16:13:23.209Z,9.52
2023-02-27T16:16:02.613Z,9.95
2023-02-27T16:18:48.183Z,12.38
2023-02-27T16:21:23.209Z,10.15
2023-02-27T16:24:16.558Z,10.80
2023-02-27T16:26:54.265Z,12.30
2023-02-27T16:29:33.667Z,13.23
2023-02-27T16:32:07.455Z,10.43
2023-02-27T16:34:45.844Z,11.13
2023-02-27T16:37:22.084Z,11.45
2023-02-27T16:39:55.395Z,10.70
2023-02-27T16:42:30.050Z,11.85
2023-02-27T16:45:03.764Z,11.73
2023-02-27T16:47:37.286Z,12.65
2023-02-27T16:50:16.495Z,11.63
2023-02-27T16:52:50.110Z,10.60
2023-02-27T16:55:23.505Z,13.02
2023-02-27T16:57:58.502Z,11.35
2023-02-27T17:00:34.118Z,10.88
2023-02-27T17:03:07.455Z,12.15
2023-02-27T17:05:41.348Z,13.38
2023-02-27T17:10:47.991Z,13.20
2023-02-27T17:13:24.056Z,13.88
2023-02-27T17:15:58.002Z,11.90
2023-02-27T17:18:31.420Z,13.75
2023-02-27T17:21:05.841Z,12.55
2023-02-27T17:23:39.399Z,12.32
2023-02-27T17:26:12.621Z,12.98
2023-02-27T17:28:47.729Z,12.30
2023-02-27T17:31:23.150Z,13.00
2023-02-27T17:33:57.043Z,14.52
2023-02-27T17:36:30.756Z,14.95
2023-02-27T17:39:04.167Z,11.50
2023-02-27T17:41:37.587Z,11.60
2023-02-27T17:44:12.773Z,12.82
2023-02-27T17:46:47.586Z,13.48
2023-02-27T17:49:20.846Z,12.88
2023-02-27T17:51:54.110Z,13.05
2023-02-27T17:54:27.875Z,13.13
2023-02-27T17:57:01.637Z,11.15
2023-02-27T17:59:37.313Z,10.50
2023-02-27T18:02:12.057Z,12.05
2023-02-27T18:04:45.353Z,11.10
2023-02-27T18:07:18.574Z,10.93
2023-02-27T18:09:51.760Z,12.10
2023-02-27T18:12:25.491Z,11.20
2023-02-27T18:15:00.311Z,10.95
2023-02-27T18:17:34.496Z,11.25
2023-02-27T18:20:10.198Z,11.13
2023-02-27T18:22:43.657Z,13.50
2023-02-27T18:25:16.920Z,12.90
2023-02-27T18:27:50.652Z,11.77
2023-02-27T18:30:25.778Z,11.85
2023-02-27T18:33:00.206Z,13.27
2023-02-27T18:35:33.857Z,11.13
2023-02-27T18:38:07.172Z,10.98
2023-02-27T18:40:40.423Z,12.07
2023-02-27T18:43:14.691Z,11.10
2023-02-27T18:45:49.685Z,11.30
2023-02-27T18:48:23.256Z,13.15
2023-02-27T18:51:01.229Z,12.13
2023-02-27T18:53:36.426Z,10.95
2023-02-27T18:56:11.839Z,9.38
2023-02-27T18:58:45.285Z,11.20
2023-02-27T19:01:26.440Z,10.38
2023-02-27T19:04:03.815Z,10.23
2023-02-27T19:06:40.960Z,10.02
2023-02-27T19:09:17.119Z,9.80
2023-02-27T19:11:51.495Z,10.23
2023-02-27T19:14:25.937Z,10.05
2023-02-27T19:17:01.676Z,10.18
2023-02-27T19:19:36.414Z,11.02
2023-02-27T19:22:10.033Z,11.80
2023-02-27T19:24:44.485Z,10.60
2023-02-27T19:27:18.292Z,12.23
2023-02-27T19:29:51.884Z,13.77
2023-02-27T19:32:26.940Z,9.35
2023-02-27T19:35:00.248Z,12.02
2023-02-27T19:37:34.029Z,11.45
2023-02-27T19:40:08.527Z,12.45
2023-02-27T19:42:42.289Z,11.75
2023-02-27T19:45:15.728Z,10.05
2023-02-27T19:47:50.830Z,10.18
2023-02-27T19:50:24.315Z,12.60
2023-02-27T19:52:57.783Z,10.98
2023-02-27T19:55:31.100Z,9.40
2023-02-27T19:58:05.289Z,8.98
2023-02-27T20:00:40.723Z,10.05
2023-02-27T20:03:15.591Z,9.32
2023-02-27T20:05:49.145Z,9.90
2023-02-27T20:08:23.236Z,9.23
2023-02-27T20:10:57.335Z,9.30
2023-02-27T20:13:31.819Z,9.10
2023-02-27T20:16:08.504Z,9.73
2023-02-27T20:18:43.911Z,9.95
2023-02-27T20:21:20.348Z,9.25
2023-02-27T20:23:54.040Z,9.80
2023-02-27T20:26:30.796Z,10.43
2023-02-27T20:29:06.814Z,9.93
2023-02-27T20:31:41.801Z,9.35
2023-02-27T20:34:21.942Z,9.93
2023-02-27T20:36:56.430Z,10.48
2023-02-27T20:39:30.448Z,10.82
2023-02-27T20:42:04.514Z,11.20
2023-02-27T20:44:38.039Z,10.68
2023-02-27T20:47:11.468Z,12.48
2023-02-27T20:49:46.348Z,11.60
2023-02-27T20:52:19.662Z,11.32
2023-02-27T20:54:53.588Z,12.02
2023-02-27T21:00:00.284Z,11.70
2023-02-27T21:02:33.619Z,10.98
2023-02-27T21:05:09.007Z,12.23
2023-02-27T21:07:42.175Z,11.23
2023-02-27T21:10:15.738Z,10.77
2023-02-27T21:12:53.301Z,11.00
2023-02-27T21:15:27.192Z,10.40
2023-02-27T21:18:00.833Z,10.82
2023-02-27T21:20:35.636Z,10.02
2023-02-27T21:23:08.897Z,11.02
2023-02-27T21:25:43.797Z,10.40
2023-02-27T21:28:17.364Z,11.52
2023-02-27T21:30:54.320Z,10.05
2023-02-27T21:33:28.165Z,10.90
2023-02-27T21:36:02.974Z,10.18
2023-02-27T21:38:36.615Z,9.95
2023-02-27T21:41:12.655Z,10.68
2023-02-27T21:43:46.522Z,8.93
2023-02-27T21:46:20.842Z,12.45
2023-02-27T21:48:54.088Z,12.27
2023-02-27T21:51:39.903Z,11.95
2023-02-27T21:54:14.771Z,12.48
2023-02-27T21:56:49.380Z,9.38
2023-02-27T21:59:22.624Z,10.65
2023-02-27T22:01:56.288Z,9.95
2023-02-27T22:04:29.631Z,10.00
2023-02-27T22:07:04.447Z,11.40
2023-02-27T22:09:37.974Z,10.10
2023-02-27T22:14:45.285Z,10.68
2023-02-27T22:17:18.621Z,14.75
2023-02-27T22:19:52.900Z,16.08
2023-02-27T22:22:27.752Z,16.20
2023-02-27T22:25:01.306Z,15.40
2023-02-27T22:27:34.801Z,13.80
2023-02-27T22:30:09.308Z,15.70
2023-02-27T22:32:42.588Z,15.25
2023-02-27T22:35:16.462Z,15.88
2023-02-27T22:40:24.915Z,13.50
2023-02-27T22:42:58.473Z,14.90
2023-02-27T22:45:31.928Z,14.60
2023-02-27T22:48:05.616Z,15.98
2023-02-27T22:50:38.972Z,15.93
2023-02-27T22:53:14.043Z,17.13
2023-02-27T22:55:54.308Z,14.55
2023-02-27T22:58:29.644Z,15.55
2023-02-27T23:01:02.941Z,15.45
2023-02-27T23:03:36.224Z,18.17
2023-02-27T23:06:12.148Z,19.15
2023-02-27T23:08:47.365Z,17.77
2023-02-27T23:11:22.076Z,17.63
2023-02-27T23:13:56.640Z,15.40
2023-02-27T23:16:30.884Z,16.02
2023-02-27T23:19:05.540Z,25.52
2023-02-27T23:21:40.151Z,30.67
2023-02-27T23:24:17.767Z,28.88
2023-02-27T23:26:53.041Z,21.00
2023-02-27T23:29:26.328Z,17.17
2023-02-27T23:31:59.776Z,15.82
2023-02-27T23:34:47.474Z,16.25
2023-02-27T23:37:23.103Z,15.55
2023-02-27T23:39:57.913Z,16.35
2023-02-27T23:42:48.618Z,16.17
2023-02-27T23:45:25.001Z,16.45
2023-02-27T23:48:00.279Z,18.85
2023-02-27T23:50:35.720Z,20.02
2023-02-27T23:53:10.419Z,18.50
2023-02-27T23:55:45.375Z,18.50
2023-02-27T23:58:18.927Z,17.38
